createdAt,value
2019-05-13T00:01:23.870Z,13.93
2019-05-13T00:02:58.224Z,13.86
2019-05-13T00:04:33.897Z,13.77
2019-05-13T00:06:08.114Z,13.70
2019-05-13T00:07:43.783Z,13.67
2019-05-13T00:09:18.584Z,13.63
2019-05-13T00:10:54.201Z,13.61
2019-05-13T00:12:28.699Z,13.62
2019-05-13T00:14:04.392Z,13.63
2019-05-13T00:15:38.873Z,13.62
2019-05-13T00:17:14.708Z,13.62
2019-05-13T00:18:48.948Z,13.59
2019-05-13T00:20:24.204Z,13.55
2019-05-13T00:21:58.618Z,13.46
2019-05-13T00:23:34.086Z,13.43
2019-05-13T00:25:08.516Z,13.39
2019-05-13T00:26:44.518Z,13.37
2019-05-13T00:28:19.263Z,13.36
2019-05-13T00:29:54.477Z,13.31
2019-05-13T00:31:28.679Z,13.25
2019-05-13T00:33:03.909Z,13.20
2019-05-13T00:34:38.266Z,13.14
2019-05-13T00:36:14.247Z,13.10
2019-05-13T00:37:48.664Z,13.03
2019-05-13T00:39:24.569Z,12.99
2019-05-13T00:40:59.252Z,12.94
2019-05-13T00:42:34.444Z,12.94
2019-05-13T00:44:08.655Z,12.93
2019-05-13T00:45:44.481Z,12.91
2019-05-13T00:47:18.886Z,12.92
2019-05-13T00:48:54.287Z,12.92
2019-05-13T00:50:28.481Z,12.91
2019-05-13T00:52:03.890Z,12.89
2019-05-13T00:53:38.296Z,12.88
2019-05-13T00:55:14.852Z,12.88
2019-05-13T00:56:49.808Z,12.87
2019-05-13T00:58:24.569Z,12.87
2019-05-13T00:59:58.815Z,12.85
2019-05-13T01:01:33.996Z,12.79
2019-05-13T01:03:08.205Z,12.74
2019-05-13T01:04:44.497Z,12.72
2019-05-13T01:06:18.764Z,12.69
2019-05-13T01:07:54.108Z,12.67
2019-05-13T01:09:28.318Z,12.64
2019-05-13T01:11:04.240Z,12.63
2019-05-13T01:12:39.540Z,12.58
2019-05-13T01:14:14.542Z,12.56
2019-05-13T01:15:48.716Z,12.54
2019-05-13T01:17:23.664Z,12.53
2019-05-13T01:18:57.950Z,12.51
2019-05-13T01:20:34.498Z,12.50
2019-05-13T01:22:09.119Z,12.52
2019-05-13T01:23:44.043Z,12.51
2019-05-13T01:25:18.234Z,12.51
2019-05-13T01:26:54.163Z,12.51
2019-05-13T01:28:29.354Z,12.51
2019-05-13T01:30:06.611Z,12.50
2019-05-13T01:31:43.237Z,12.50
2019-05-13T01:33:17.720Z,12.47
2019-05-13T01:34:53.844Z,12.42
2019-05-13T01:36:28.405Z,12.42
2019-05-13T01:38:04.632Z,12.40
2019-05-13T01:39:39.886Z,12.38
2019-05-13T01:41:14.123Z,12.37
2019-05-13T01:42:48.671Z,12.35
2019-05-13T01:44:24.383Z,12.34
2019-05-13T01:45:59.695Z,12.34
2019-05-13T01:47:34.533Z,12.33
2019-05-13T01:49:09.513Z,12.32
2019-05-13T01:50:44.493Z,12.29
2019-05-13T01:52:20.107Z,12.29
2019-05-13T01:53:54.316Z,12.28
2019-05-13T01:55:29.144Z,12.26
2019-05-13T01:57:04.505Z,12.26
2019-05-13T01:58:40.029Z,12.25
2019-05-13T02:00:14.529Z,12.23
2019-05-13T02:01:49.331Z,12.20
2019-05-13T02:03:24.611Z,12.18
2019-05-13T02:04:59.926Z,12.12
2019-05-13T02:06:34.147Z,12.06
2019-05-13T02:08:08.976Z,11.98
2019-05-13T02:09:44.337Z,11.88
2019-05-13T02:11:19.842Z,11.84
2019-05-13T02:12:54.054Z,11.81
2019-05-13T02:14:28.820Z,11.79
2019-05-13T02:16:04.101Z,11.79
2019-05-13T02:17:39.736Z,11.67
2019-05-13T02:19:14.365Z,11.73
2019-05-13T02:20:49.273Z,11.70
2019-05-13T02:22:24.778Z,11.68
2019-05-13T02:24:00.145Z,11.67
2019-05-13T02:25:34.436Z,11.66
2019-05-13T02:27:09.332Z,11.64
2019-05-13T02:28:43.779Z,11.59
2019-05-13T02:30:19.446Z,11.58
2019-05-13T02:31:56.210Z,11.54
2019-05-13T02:33:33.564Z,11.52
2019-05-13T02:35:06.733Z,11.46
2019-05-13T02:36:43.858Z,11.41
2019-05-13T02:38:24.838Z,11.38
2019-05-13T02:39:54.281Z,11.37
2019-05-13T02:41:28.637Z,11.35
2019-05-13T02:43:03.985Z,11.35
2019-05-13T02:44:38.204Z,11.36
2019-05-13T02:46:13.293Z,11.34
2019-05-13T02:47:47.520Z,11.33
2019-05-13T02:49:23.101Z,11.33
2019-05-13T02:50:57.776Z,11.31
2019-05-13T02:52:33.465Z,11.30
2019-05-13T02:54:08.018Z,11.30
2019-05-13T02:55:43.832Z,11.28
2019-05-13T02:57:18.241Z,11.29
2019-05-13T02:58:53.027Z,11.30
2019-05-13T03:00:27.305Z,11.32
2019-05-13T03:02:03.855Z,11.29
2019-05-13T03:03:38.405Z,11.26
2019-05-13T03:05:14.135Z,11.25
2019-05-13T03:06:48.486Z,11.22
2019-05-13T03:08:39.134Z,11.19
2019-05-13T03:10:03.795Z,11.17
2019-05-13T03:11:36.369Z,11.14
2019-05-13T03:13:12.643Z,11.13
2019-05-13T03:14:48.602Z,11.13
2019-05-13T03:16:27.504Z,11.08
2019-05-13T03:18:06.260Z,11.04
2019-05-13T03:19:43.245Z,10.99
2019-05-13T03:21:17.126Z,10.98
2019-05-13T03:22:52.619Z,10.98
2019-05-13T03:24:27.764Z,10.97
2019-05-13T03:26:03.122Z,10.98
2019-05-13T03:27:38.671Z,11.00
2019-05-13T03:29:13.322Z,10.99
2019-05-13T03:30:48.406Z,10.99
2019-05-13T03:32:26.170Z,10.99
2019-05-13T03:34:05.709Z,10.88
2019-05-13T03:35:37.267Z,10.97
2019-05-13T03:37:15.304Z,10.97
2019-05-13T03:39:05.953Z,11.03
2019-05-13T03:40:29.234Z,11.09
2019-05-13T03:42:04.196Z,11.15
2019-05-13T03:43:42.945Z,11.20
2019-05-13T03:45:16.873Z,11.21
2019-05-13T03:46:55.381Z,11.25
2019-05-13T03:48:33.402Z,11.30
2019-05-13T03:50:08.637Z,11.34
2019-05-13T03:51:43.117Z,11.36
2019-05-13T03:53:18.573Z,11.38
2019-05-13T03:54:53.666Z,11.38
2019-05-13T03:56:28.652Z,11.43
2019-05-13T03:58:03.312Z,11.46
2019-05-13T03:59:38.575Z,11.49
2019-05-13T04:01:13.604Z,11.53
2019-05-13T04:02:51.907Z,11.56
2019-05-13T04:04:24.913Z,11.59
2019-05-13T04:06:03.293Z,11.65
2019-05-13T04:07:35.992Z,11.69
2019-05-13T04:09:22.482Z,11.75
2019-05-13T04:10:46.681Z,11.82
2019-05-13T04:12:22.772Z,11.89
2019-05-13T04:13:57.393Z,12.00
2019-05-13T04:15:32.261Z,12.08
2019-05-13T04:17:06.510Z,12.17
2019-05-13T04:18:42.523Z,12.30
2019-05-13T04:20:17.302Z,12.36
2019-05-13T04:21:52.920Z,12.47
2019-05-13T04:23:27.391Z,12.55
2019-05-13T04:25:02.643Z,12.68
2019-05-13T04:26:36.929Z,12.74
2019-05-13T04:28:13.370Z,12.40
2019-05-13T04:29:48.085Z,12.96
2019-05-13T04:31:23.229Z,13.07
2019-05-13T04:32:57.444Z,13.18
2019-05-13T04:34:33.949Z,13.35
2019-05-13T04:36:08.685Z,13.50
2019-05-13T04:37:43.751Z,13.66
2019-05-13T04:39:38.867Z,13.79
2019-05-13T04:40:54.568Z,13.94
2019-05-13T04:42:28.846Z,14.05
2019-05-13T04:44:04.082Z,14.19
2019-05-13T04:45:38.254Z,14.36
2019-05-13T04:47:13.135Z,14.65
2019-05-13T04:48:47.650Z,15.25
2019-05-13T04:50:23.046Z,15.86
2019-05-13T04:51:57.325Z,16.51
2019-05-13T04:53:33.312Z,16.94
2019-05-13T04:55:08.191Z,17.25
2019-05-13T04:56:43.589Z,17.53
2019-05-13T04:58:17.823Z,17.75
2019-05-13T04:59:55.011Z,17.87
2019-05-13T05:01:52.215Z,17.92
2019-05-13T05:03:33.503Z,17.91
2019-05-13T05:05:28.392Z,17.79
2019-05-13T05:07:22.221Z,17.61
2019-05-13T05:09:08.438Z,17.48
2019-05-13T05:11:04.137Z,17.46
2019-05-13T05:13:16.400Z,17.60
2019-05-13T05:15:06.120Z,17.89
2019-05-13T05:17:15.062Z,18.06
2019-05-13T05:19:13.692Z,18.07
2019-05-13T05:21:01.473Z,18.18
2019-05-13T05:22:41.869Z,18.33
2019-05-13T05:24:53.247Z,18.51
2019-05-13T05:26:47.360Z,18.94
2019-05-13T05:28:46.923Z,19.43
2019-05-13T05:30:58.758Z,19.81
2019-05-13T05:32:45.659Z,19.97
2019-05-13T05:34:28.668Z,20.04
2019-05-13T05:36:41.458Z,20.10
2019-05-13T05:38:25.830Z,20.17
2019-05-13T05:40:01.930Z,20.32
2019-05-13T05:41:37.572Z,20.67
2019-05-13T05:43:14.759Z,21.28
2019-05-13T05:44:52.815Z,22.02
2019-05-13T05:46:28.774Z,22.54
2019-05-13T05:48:05.087Z,22.74
2019-05-13T05:49:42.793Z,22.51
2019-05-13T05:51:22.157Z,22.24
2019-05-13T05:52:58.129Z,22.19
2019-05-13T05:54:36.064Z,22.65
2019-05-13T05:56:13.447Z,22.97
2019-05-13T05:57:52.218Z,23.06
2019-05-13T05:59:27.550Z,22.94
2019-05-13T06:01:04.027Z,22.82
2019-05-13T06:02:42.491Z,22.89
2019-05-13T06:04:16.488Z,22.76
2019-05-13T06:05:51.321Z,22.51
2019-05-13T06:07:26.285Z,22.41
2019-05-13T06:09:01.943Z,22.52
2019-05-13T06:10:49.091Z,22.69
2019-05-13T06:12:13.691Z,22.89
2019-05-13T06:13:51.556Z,23.44
2019-05-13T06:15:24.821Z,23.91
2019-05-13T06:17:02.404Z,24.41
2019-05-13T06:18:35.928Z,24.73
2019-05-13T06:20:13.224Z,24.99
2019-05-13T06:21:47.740Z,24.97
2019-05-13T06:23:22.522Z,24.87
2019-05-13T06:24:57.556Z,24.76
2019-05-13T06:26:32.178Z,24.54
2019-05-13T06:28:06.721Z,24.45
2019-05-13T06:29:42.352Z,24.46
2019-05-13T06:31:17.313Z,24.60
2019-05-13T06:32:52.501Z,24.75
2019-05-13T06:34:27.380Z,25.08
2019-05-13T06:36:02.513Z,25.18
2019-05-13T06:37:36.985Z,24.93
2019-05-13T06:39:12.485Z,24.73
2019-05-13T06:41:02.512Z,24.52
2019-05-13T06:42:24.445Z,24.41
2019-05-13T06:43:58.905Z,24.44
2019-05-13T06:45:33.500Z,24.72
2019-05-13T06:47:07.902Z,25.05
2019-05-13T06:48:42.678Z,24.84
2019-05-13T06:50:17.072Z,24.56
2019-05-13T06:51:52.742Z,24.33
2019-05-13T06:53:27.402Z,24.26
2019-05-13T06:55:02.875Z,24.19
2019-05-13T06:56:37.793Z,24.16
2019-05-13T06:58:14.088Z,24.16
2019-05-13T06:59:48.494Z,24.28
2019-05-13T07:01:23.421Z,24.42
2019-05-13T07:02:57.873Z,24.52
2019-05-13T07:04:32.923Z,24.65
2019-05-13T07:06:07.464Z,24.84
2019-05-13T07:07:42.480Z,24.84
2019-05-13T07:09:17.030Z,24.54
2019-05-13T07:10:51.758Z,24.38
2019-05-13T07:12:26.129Z,24.56
2019-05-13T07:14:02.410Z,24.63
2019-05-13T07:15:37.289Z,24.56
2019-05-13T07:17:12.457Z,24.58
2019-05-13T07:18:47.096Z,24.57
2019-05-13T07:20:23.172Z,24.68
2019-05-13T07:21:57.629Z,24.85
2019-05-13T07:23:32.324Z,24.98
2019-05-13T07:25:07.394Z,25.37
2019-05-13T07:26:42.153Z,25.56
2019-05-13T07:28:16.549Z,26.12
2019-05-13T07:29:52.545Z,26.68
2019-05-13T07:31:27.236Z,27.02
2019-05-13T07:33:02.045Z,26.99
2019-05-13T07:34:36.433Z,26.83
2019-05-13T07:36:12.785Z,26.89
2019-05-13T07:37:47.598Z,27.21
2019-05-13T07:39:22.776Z,27.37
2019-05-13T07:41:02.312Z,27.36
2019-05-13T07:42:36.933Z,27.71
2019-05-13T07:44:11.965Z,28.33
2019-05-13T07:45:46.977Z,29.15
2019-05-13T07:47:22.286Z,29.97
2019-05-13T07:48:57.136Z,30.37
2019-05-13T07:50:32.219Z,30.66
2019-05-13T07:52:07.497Z,30.90
2019-05-13T07:53:42.631Z,30.99
2019-05-13T07:55:17.408Z,30.59
2019-05-13T07:56:52.484Z,30.02
2019-05-13T07:58:28.016Z,29.35
2019-05-13T08:00:02.400Z,28.95
2019-05-13T08:01:37.053Z,28.55
2019-05-13T08:03:12.425Z,28.13
2019-05-13T08:04:49.535Z,27.57
2019-05-13T08:06:23.660Z,27.06
2019-05-13T08:07:58.238Z,26.83
2019-05-13T08:09:32.700Z,26.68
2019-05-13T08:11:07.470Z,26.55
2019-05-13T08:12:41.873Z,26.44
2019-05-13T08:14:16.563Z,26.48
2019-05-13T08:15:54.413Z,26.15
2019-05-13T08:17:27.540Z,25.87
2019-05-13T08:19:02.062Z,25.79
2019-05-13T08:20:36.833Z,25.75
2019-05-13T08:22:12.143Z,25.93
2019-05-13T08:23:47.022Z,26.17
2019-05-13T08:25:22.279Z,26.37
2019-05-13T08:26:57.179Z,26.52
2019-05-13T08:28:32.478Z,26.85
2019-05-13T08:30:11.735Z,27.53
2019-05-13T08:31:45.284Z,28.31
2019-05-13T08:33:22.443Z,28.25
2019-05-13T08:35:01.306Z,28.24
2019-05-13T08:36:32.833Z,28.85
2019-05-13T08:38:07.869Z,28.98
2019-05-13T08:39:42.598Z,29.10
2019-05-13T08:41:19.393Z,29.27
2019-05-13T08:42:53.703Z,28.93
2019-05-13T08:44:28.166Z,28.89
2019-05-13T08:46:03.375Z,28.97
2019-05-13T08:47:37.758Z,29.13
2019-05-13T08:49:12.688Z,29.03
2019-05-13T08:50:47.082Z,29.10
2019-05-13T08:52:22.040Z,29.13
2019-05-13T08:53:57.381Z,29.13
2019-05-13T08:55:32.390Z,29.58
2019-05-13T08:57:06.833Z,30.07
2019-05-13T08:58:41.428Z,30.10
2019-05-13T09:00:21.458Z,30.06
2019-05-13T09:01:56.502Z,29.79
2019-05-13T09:03:32.505Z,29.78
2019-05-13T09:05:08.652Z,30.14
2019-05-13T09:06:43.958Z,30.69
2019-05-13T09:08:19.082Z,30.73
2019-05-13T09:09:53.482Z,30.63
2019-05-13T09:11:28.134Z,30.03
2019-05-13T09:13:02.673Z,29.66
2019-05-13T09:14:37.532Z,29.33
2019-05-13T09:16:14.828Z,29.76
2019-05-13T09:17:51.643Z,30.10
2019-05-13T09:19:25.440Z,30.37
2019-05-13T09:21:02.529Z,30.47
2019-05-13T09:22:36.585Z,30.87
2019-05-13T09:25:47.256Z,31.52
2019-05-13T09:27:22.634Z,31.64
2019-05-13T09:28:57.368Z,31.30
2019-05-13T09:30:31.954Z,30.73
2019-05-13T09:32:06.985Z,30.22
2019-05-13T09:33:41.889Z,29.91
2019-05-13T09:35:16.450Z,28.90
2019-05-13T09:36:51.885Z,29.16
2019-05-13T09:38:26.603Z,28.99
2019-05-13T09:40:02.545Z,29.44
2019-05-13T09:41:41.047Z,29.38
2019-05-13T09:43:13.287Z,29.86
2019-05-13T09:44:47.717Z,29.87
2019-05-13T09:46:22.740Z,29.76
2019-05-13T09:47:57.381Z,29.76
2019-05-13T09:49:32.841Z,29.43
2019-05-13T09:51:07.668Z,29.40
2019-05-13T09:52:42.985Z,29.48
2019-05-13T09:54:17.473Z,29.25
2019-05-13T09:55:52.471Z,29.01
2019-05-13T09:57:27.104Z,28.68
2019-05-13T09:59:02.073Z,28.47
2019-05-13T10:00:36.503Z,28.45
2019-05-13T10:03:57.045Z,28.27
2019-05-13T10:05:23.849Z,27.65
2019-05-13T10:06:58.317Z,27.30
2019-05-13T10:08:33.079Z,27.28
2019-05-13T10:10:08.932Z,27.10
2019-05-13T10:11:43.865Z,26.88
2019-05-13T10:13:18.414Z,26.77
2019-05-13T10:14:52.984Z,26.84
2019-05-13T10:16:27.365Z,26.56
2019-05-13T10:18:02.616Z,26.37
2019-05-13T10:19:37.006Z,26.42
2019-05-13T10:21:11.750Z,26.77
2019-05-13T10:22:46.137Z,27.00
2019-05-13T10:24:22.195Z,27.01
2019-05-13T10:26:03.361Z,26.89
2019-05-13T10:27:38.428Z,27.09
2019-05-13T10:29:13.052Z,27.05
2019-05-13T10:30:52.489Z,27.16
2019-05-13T10:32:24.894Z,27.04
2019-05-13T10:34:02.063Z,26.88
2019-05-13T10:35:37.080Z,26.97
2019-05-13T10:37:12.197Z,27.08
2019-05-13T10:38:46.503Z,27.19
2019-05-13T10:40:22.947Z,27.01
2019-05-13T10:41:57.333Z,26.84
2019-05-13T10:43:32.609Z,26.82
2019-05-13T10:45:12.857Z,26.81
2019-05-13T10:46:46.710Z,26.67
2019-05-13T10:48:22.016Z,26.75
2019-05-13T10:49:57.132Z,26.56
2019-05-13T10:51:32.727Z,26.36
2019-05-13T10:53:08.452Z,26.43
2019-05-13T10:54:42.660Z,26.69
2019-05-13T10:56:17.952Z,26.96
2019-05-13T10:57:52.176Z,27.06
2019-05-13T10:59:26.932Z,27.16
2019-05-13T11:02:37.964Z,26.65
2019-05-13T11:04:13.555Z,26.76
2019-05-13T11:05:52.561Z,26.81
2019-05-13T11:07:26.054Z,26.88
2019-05-13T11:09:02.038Z,26.72
2019-05-13T11:10:36.519Z,26.76
2019-05-13T11:12:12.200Z,26.98
2019-05-13T11:13:54.385Z,27.34
2019-05-13T11:15:23.413Z,27.49
2019-05-13T11:16:57.622Z,27.33
2019-05-13T11:18:32.517Z,27.33
2019-05-13T11:20:08.109Z,27.23
2019-05-13T11:21:44.185Z,27.02
2019-05-13T11:23:18.956Z,27.10
2019-05-13T11:24:53.778Z,27.33
2019-05-13T11:26:27.988Z,27.50
2019-05-13T11:28:03.118Z,27.46
2019-05-13T11:29:37.405Z,27.02
2019-05-13T11:31:12.712Z,26.98
2019-05-13T11:32:46.994Z,26.91
2019-05-13T11:34:22.379Z,27.00
2019-05-13T11:35:57.091Z,26.85
2019-05-13T11:37:32.189Z,26.89
2019-05-13T11:39:08.141Z,26.94
2019-05-13T11:40:43.236Z,27.16
2019-05-13T11:42:17.516Z,27.46
2019-05-13T11:44:11.492Z,27.59
2019-05-13T11:45:28.174Z,27.49
2019-05-13T11:47:03.185Z,27.47
2019-05-13T11:48:38.222Z,27.67
2019-05-13T11:50:13.200Z,27.56
2019-05-13T11:51:47.400Z,27.73
2019-05-13T11:53:32.572Z,28.03
2019-05-13T11:55:01.790Z,27.97
2019-05-13T11:56:35.784Z,27.65
2019-05-13T11:58:13.471Z,27.61
2019-05-13T11:59:46.848Z,27.78
2019-05-13T12:01:22.834Z,27.90
2019-05-13T12:02:57.584Z,27.95
2019-05-13T12:04:34.462Z,27.60
2019-05-13T12:06:08.425Z,27.61
2019-05-13T12:07:42.626Z,27.81
2019-05-13T12:09:17.831Z,27.54
2019-05-13T12:10:52.306Z,27.38
2019-05-13T12:12:31.819Z,27.52
2019-05-13T12:14:03.967Z,27.49
2019-05-13T12:15:45.939Z,27.60
2019-05-13T12:17:14.641Z,27.77
2019-05-13T12:18:52.554Z,27.91
2019-05-13T12:20:26.183Z,28.19
2019-05-13T12:22:02.573Z,28.48
2019-05-13T12:23:37.001Z,28.42
2019-05-13T12:25:13.872Z,28.52
2019-05-13T12:26:47.961Z,28.41
2019-05-13T12:28:22.725Z,28.13
2019-05-13T12:29:57.548Z,27.86
2019-05-13T12:31:33.686Z,27.76
2019-05-13T12:33:08.040Z,27.77
2019-05-13T12:34:45.801Z,27.69
2019-05-13T12:36:19.914Z,27.47
2019-05-13T12:37:55.557Z,27.54
2019-05-13T12:39:32.054Z,27.28
2019-05-13T12:41:06.176Z,27.28
2019-05-13T12:42:46.275Z,27.38
2019-05-13T12:44:17.259Z,27.57
2019-05-13T12:45:53.329Z,27.52
2019-05-13T12:47:27.917Z,27.62
2019-05-13T12:49:03.872Z,27.81
2019-05-13T12:50:38.726Z,27.79
2019-05-13T12:52:13.353Z,27.76
2019-05-13T12:53:48.346Z,27.75
2019-05-13T12:55:22.556Z,27.89
2019-05-13T12:56:57.473Z,28.11
2019-05-13T12:58:33.928Z,28.13
2019-05-13T13:00:09.011Z,28.34
2019-05-13T13:01:43.257Z,28.58
2019-05-13T13:03:18.297Z,28.72
2019-05-13T13:05:10.490Z,28.74
2019-05-13T13:06:39.482Z,28.57
2019-05-13T13:08:18.292Z,28.25
2019-05-13T13:09:43.218Z,28.05
2019-05-13T13:11:17.929Z,28.07
2019-05-13T13:12:54.591Z,27.98
2019-05-13T13:14:38.216Z,27.87
2019-05-13T13:16:05.289Z,27.68
2019-05-13T13:17:41.469Z,27.48
2019-05-13T13:19:15.900Z,27.39
2019-05-13T13:20:57.937Z,27.23
2019-05-13T13:22:26.829Z,27.13
2019-05-13T13:24:04.559Z,27.01
2019-05-13T13:25:37.447Z,27.13
2019-05-13T13:27:20.847Z,27.03
2019-05-13T13:28:48.574Z,26.81
2019-05-13T13:30:22.938Z,26.70
2019-05-13T13:31:58.007Z,26.61
2019-05-13T13:33:34.334Z,26.64
2019-05-13T13:35:09.446Z,26.58
2019-05-13T13:36:46.090Z,26.59
2019-05-13T13:38:25.209Z,26.38
2019-05-13T13:39:56.560Z,26.20
2019-05-13T13:41:32.740Z,26.09
2019-05-13T13:43:07.276Z,25.95
2019-05-13T13:44:42.891Z,25.73
2019-05-13T13:46:36.960Z,25.66
2019-05-13T13:48:03.107Z,25.66
2019-05-13T13:49:34.533Z,25.55
2019-05-13T13:51:06.622Z,25.43
2019-05-13T13:52:45.601Z,25.35
2019-05-13T13:54:17.621Z,25.33
2019-05-13T13:55:55.793Z,25.38
2019-05-13T13:57:28.329Z,25.33
2019-05-13T13:59:04.490Z,25.34
2019-05-13T14:00:52.584Z,25.38
2019-05-13T14:02:15.191Z,25.36
2019-05-13T14:03:52.799Z,25.56
2019-05-13T14:05:25.870Z,25.61
2019-05-13T14:06:25.463Z,28.36
2019-05-13T14:06:26.943Z,27.07
2019-05-13T14:07:03.038Z,31.44
2019-05-13T14:07:22.050Z,25.57
2019-05-13T14:08:36.766Z,25.38
2019-05-13T14:10:12.033Z,25.42
2019-05-13T14:11:46.360Z,25.55
2019-05-13T14:13:21.922Z,25.33
2019-05-13T14:14:56.253Z,25.26
2019-05-13T14:16:34.893Z,25.29
2019-05-13T14:18:06.941Z,25.38
2019-05-13T14:19:42.162Z,25.26
2019-05-13T14:21:16.610Z,25.08
2019-05-13T14:22:57.505Z,25.14
2019-05-13T14:24:27.259Z,25.23
2019-05-13T14:26:02.495Z,25.33
2019-05-13T14:27:36.723Z,25.20
2019-05-13T14:29:12.332Z,25.36
2019-05-13T14:30:47.116Z,25.39
2019-05-13T14:32:22.518Z,25.42
2019-05-13T14:42:34.430Z,24.60
2019-05-13T14:44:09.197Z,24.58
2019-05-13T14:45:43.714Z,24.57
2019-05-13T14:47:18.470Z,24.50
2019-05-13T14:48:52.829Z,24.34
2019-05-13T14:50:28.681Z,24.28
2019-05-13T14:52:02.910Z,24.25
2019-05-13T14:53:37.742Z,24.14
2019-05-13T14:55:12.412Z,24.07
2019-05-13T14:56:47.201Z,24.01
2019-05-13T14:58:21.913Z,24.05
2019-05-13T14:59:56.796Z,24.13
2019-05-13T15:01:31.948Z,24.26
2019-05-13T15:03:06.888Z,24.36
2019-05-13T15:04:41.977Z,24.36
2019-05-13T15:06:21.535Z,24.41
2019-05-13T15:07:55.700Z,24.37
2019-05-13T15:09:31.469Z,24.36
2019-05-13T15:11:05.917Z,24.41
2019-05-13T15:22:42.235Z,23.95
2019-05-13T15:24:16.465Z,23.96
2019-05-13T15:25:51.509Z,24.01
2019-05-13T15:27:27.512Z,24.07
2019-05-13T15:29:04.990Z,24.09
2019-05-13T15:30:38.321Z,23.94
2019-05-13T15:32:12.599Z,23.84
2019-05-13T15:33:47.361Z,23.93
2019-05-13T15:35:22.403Z,23.92
2019-05-13T15:36:57.217Z,23.90
2019-05-13T15:38:32.093Z,23.80
2019-05-13T15:40:08.495Z,23.69
2019-05-13T15:41:43.025Z,23.68
2019-05-13T15:43:17.841Z,23.72
2019-05-13T15:44:53.096Z,23.73
2019-05-13T15:46:28.560Z,23.63
2019-05-13T15:48:03.135Z,23.58
2019-05-13T15:49:39.433Z,23.39
2019-05-13T15:51:13.646Z,23.36
2019-05-13T15:52:48.446Z,23.26
2019-05-13T15:54:23.960Z,23.23
2019-05-13T15:55:58.720Z,23.25
2019-05-13T15:57:32.997Z,23.18
2019-05-13T15:59:08.954Z,23.06
2019-05-13T16:00:43.969Z,23.02
2019-05-13T16:02:22.607Z,22.94
2019-05-13T16:03:56.053Z,22.87
2019-05-13T16:05:31.286Z,22.79
2019-05-13T16:07:06.385Z,22.71
2019-05-13T16:08:43.356Z,22.66
2019-05-13T16:10:17.264Z,22.59
2019-05-13T16:11:52.279Z,22.46
2019-05-13T16:13:26.888Z,22.42
2019-05-13T16:15:02.311Z,22.36
2019-05-13T16:16:36.768Z,22.35
2019-05-13T16:18:11.941Z,22.33
2019-05-13T16:19:46.561Z,22.25
2019-05-13T16:21:21.341Z,22.23
2019-05-13T16:22:55.661Z,22.26
2019-05-13T16:24:32.094Z,22.22
2019-05-13T16:26:06.570Z,22.19
2019-05-13T16:27:41.786Z,22.16
2019-05-13T16:29:15.980Z,22.09
2019-05-13T16:30:51.609Z,22.02
2019-05-13T16:32:26.070Z,21.98
2019-05-13T16:34:01.570Z,21.96
2019-05-13T16:35:36.157Z,21.99
2019-05-13T16:37:12.312Z,21.96
2019-05-13T16:38:46.697Z,21.92
2019-05-13T16:40:22.349Z,21.91
2019-05-13T16:41:56.829Z,21.95
2019-05-13T16:43:32.043Z,21.98
2019-05-13T16:45:07.208Z,21.89
2019-05-13T16:46:43.016Z,21.90
2019-05-13T16:48:17.274Z,21.84
2019-05-13T16:49:52.064Z,21.86
2019-05-13T16:51:27.832Z,21.84
2019-05-13T16:53:03.703Z,21.76
2019-05-13T16:54:38.517Z,21.72
2019-05-13T16:56:25.796Z,21.70
2019-05-13T16:57:51.343Z,21.67
2019-05-13T16:59:26.179Z,21.66
2019-05-13T17:01:02.503Z,21.63
2019-05-13T17:02:37.310Z,21.55
2019-05-13T17:04:12.519Z,21.55
2019-05-13T17:05:47.702Z,21.50
2019-05-13T17:07:21.998Z,21.48
2019-05-13T17:08:56.876Z,21.45
2019-05-13T17:10:31.677Z,21.37
2019-05-13T17:12:06.749Z,21.31
2019-05-13T17:13:42.172Z,21.23
2019-05-13T17:15:17.500Z,21.17
2019-05-13T17:16:52.168Z,21.13
2019-05-13T17:18:26.942Z,21.12
2019-05-13T17:20:02.377Z,21.09
2019-05-13T17:21:37.524Z,21.04
2019-05-13T17:23:13.867Z,21.04
2019-05-13T17:24:48.720Z,21.02
2019-05-13T17:26:22.951Z,20.98
2019-05-13T17:27:57.712Z,20.97
2019-05-13T17:29:32.150Z,20.98
2019-05-13T17:31:07.080Z,21.03
2019-05-13T17:32:41.290Z,21.06
2019-05-13T17:34:16.052Z,21.03
2019-05-13T17:35:50.558Z,20.98
2019-05-13T17:37:26.332Z,20.96
2019-05-13T17:39:01.860Z,20.95
2019-05-13T17:40:36.933Z,20.94
2019-05-13T17:42:12.171Z,20.92
2019-05-13T17:43:47.212Z,20.92
2019-05-13T17:45:22.101Z,20.92
2019-05-13T17:46:56.896Z,20.90
2019-05-13T17:48:32.935Z,20.91
2019-05-13T17:50:11.510Z,20.90
2019-05-13T17:51:45.057Z,20.91
2019-05-13T17:53:21.668Z,20.89
2019-05-13T17:54:56.002Z,20.84
2019-05-13T17:56:32.318Z,20.80
2019-05-13T17:58:06.593Z,20.72
2019-05-13T17:59:41.875Z,20.67
2019-05-13T18:01:16.550Z,20.60
2019-05-13T18:02:51.524Z,20.55
2019-05-13T18:04:25.805Z,20.50
2019-05-13T18:06:03.014Z,20.48
2019-05-13T18:07:37.409Z,20.40
2019-05-13T18:09:12.292Z,20.37
2019-05-13T18:10:46.593Z,20.34
2019-05-13T18:12:22.347Z,20.35
2019-05-13T18:13:56.990Z,20.32
2019-05-13T18:15:31.806Z,20.30
2019-05-13T18:17:06.429Z,20.28
2019-05-13T18:18:47.013Z,20.22
2019-05-13T18:20:17.401Z,20.23
2019-05-13T18:21:52.264Z,20.24
2019-05-13T18:23:26.545Z,20.21
2019-05-13T18:25:03.280Z,20.21
2019-05-13T18:26:37.493Z,20.20
2019-05-13T18:28:27.195Z,20.17
2019-05-13T18:29:51.332Z,20.17
2019-05-13T18:31:26.280Z,20.17
2019-05-13T18:33:01.222Z,20.17
2019-05-13T18:34:36.464Z,20.17
2019-05-13T18:36:12.014Z,20.17
2019-05-13T18:37:46.860Z,20.16
2019-05-13T18:39:21.681Z,20.15
2019-05-13T18:40:58.266Z,20.12
2019-05-13T18:42:33.965Z,20.10
2019-05-13T18:44:08.729Z,20.06
2019-05-13T18:45:43.350Z,20.04
2019-05-13T18:47:18.285Z,20.02
2019-05-13T18:48:58.745Z,19.99
2019-05-13T18:50:31.306Z,19.97
2019-05-13T18:52:06.225Z,19.93
2019-05-13T18:53:41.448Z,19.91
2019-05-13T18:55:16.018Z,19.91
2019-05-13T18:56:52.160Z,19.91
2019-05-13T18:58:27.180Z,19.91
2019-05-13T19:00:02.284Z,19.90
2019-05-13T19:01:38.165Z,19.87
2019-05-13T19:03:12.935Z,19.84
2019-05-13T19:04:47.566Z,19.81
2019-05-13T19:06:22.505Z,19.76
2019-05-13T19:07:56.958Z,19.72
2019-05-13T19:09:31.718Z,19.70
2019-05-13T19:11:06.348Z,19.69
2019-05-13T19:12:42.076Z,19.63
2019-05-13T19:14:16.730Z,19.62
2019-05-13T19:15:51.805Z,19.61
2019-05-13T19:17:27.998Z,19.61
2019-05-13T19:19:12.519Z,19.62
2019-05-13T19:20:39.242Z,19.60
2019-05-13T19:22:14.003Z,19.57
2019-05-13T19:23:48.722Z,19.55
2019-05-13T19:25:23.520Z,19.56
2019-05-13T19:26:57.728Z,19.54
2019-05-13T19:28:32.493Z,19.55
2019-05-13T19:30:07.196Z,19.53
2019-05-13T19:31:42.079Z,19.52
2019-05-13T19:33:16.217Z,19.53
2019-05-13T19:34:52.294Z,19.54
2019-05-13T19:36:28.434Z,19.53
2019-05-13T19:38:04.596Z,19.53
2019-05-13T19:39:38.809Z,19.55
2019-05-13T19:41:13.621Z,19.57
2019-05-13T19:42:48.135Z,19.55
2019-05-13T19:44:22.902Z,19.55
2019-05-13T19:45:57.112Z,19.52
2019-05-13T19:47:33.876Z,19.49
2019-05-13T19:49:12.291Z,19.48
2019-05-13T19:50:46.518Z,19.40
2019-05-13T19:52:21.377Z,19.32
2019-05-13T19:53:56.008Z,19.26
2019-05-13T19:55:30.332Z,19.23
2019-05-13T19:57:05.110Z,19.19
2019-05-13T19:58:39.397Z,19.14
2019-05-13T20:00:14.479Z,19.09
2019-05-13T20:01:51.385Z,19.01
2019-05-13T20:03:25.279Z,18.98
2019-05-13T20:05:01.205Z,18.89
2019-05-13T20:06:36.209Z,18.84
2019-05-13T20:08:10.556Z,18.82
2019-05-13T20:09:45.295Z,18.78
2019-05-13T20:11:21.870Z,18.73
2019-05-13T20:12:56.889Z,18.68
2019-05-13T20:14:31.214Z,18.61
2019-05-13T20:16:06.045Z,18.54
2019-05-13T20:17:41.623Z,18.48
2019-05-13T20:19:16.664Z,18.41
2019-05-13T20:20:51.854Z,18.33
2019-05-13T20:22:27.016Z,18.26
2019-05-13T20:24:01.270Z,18.21
2019-05-13T20:25:36.024Z,18.14
2019-05-13T20:27:12.023Z,18.06
2019-05-13T20:28:46.758Z,17.97
2019-05-13T20:30:21.901Z,17.88
2019-05-13T20:31:56.874Z,17.80
2019-05-13T20:33:32.135Z,17.72
2019-05-13T20:35:07.230Z,17.62
2019-05-13T20:36:42.286Z,17.54
2019-05-13T20:38:17.423Z,17.47
2019-05-13T20:39:52.875Z,17.38
2019-05-13T20:41:28.671Z,17.29
2019-05-13T20:43:02.934Z,17.19
2019-05-13T20:44:37.706Z,17.08
2019-05-13T20:46:12.030Z,17.00
2019-05-13T20:47:46.792Z,16.93
2019-05-13T20:49:21.825Z,16.92
2019-05-13T20:50:57.053Z,16.91
2019-05-13T20:52:31.576Z,16.90